Time;durP1;ratioP1;P1;durP2;ratioP2;P2;SDS_P1;SDS_P2;PMS_P1;PMS_P2;Temp;Humidity;BMP_temperature;BMP_pressure;BME280_temperature;BME280_humidity;BME280_pressure;Samples;Min_cycle;Max_cycle;Signal;HPM_P1;HPM_P2
2023/07/08 00:00:23;;;;;;;12.67;6.63;;;18.50;57.40;;;;;;5041250;28;21031;-60
2023/07/08 00:02:49;;;;;;;9.40;6.17;;;18.50;57.20;;;;;;5043914;28;20459;-60
2023/07/08 00:05:17;;;;;;;15.03;6.93;;;18.50;57.30;;;;;;5043182;28;20540;-58
2023/07/08 00:07:43;;;;;;;16.57;7.70;;;18.50;57.80;;;;;;5027667;28;20430;-59
2023/07/08 00:10:16;;;;;;;17.93;7.20;;;18.50;57.60;;;;;;5037850;28;20430;-60
2023/07/08 00:12:43;;;;;;;13.20;6.27;;;18.50;57.80;;;;;;5036877;28;20458;-59
2023/07/08 00:15:10;;;;;;;13.50;6.43;;;18.50;57.70;;;;;;5023489;28;20454;-60
2023/07/08 00:17:36;;;;;;;13.67;7.10;;;18.50;57.60;;;;;;5040478;28;20465;-58
2023/07/08 00:20:20;;;;;;;12.67;7.50;;;18.50;57.40;;;;;;5041683;28;20437;-59
2023/07/08 00:22:52;;;;;;;13.57;6.83;;;18.50;57.50;;;;;;5046247;28;20495;-61
2023/07/08 00:25:21;;;;;;;13.23;6.37;;;18.50;57.50;;;;;;5045089;28;20433;-60
2023/07/08 00:27:48;;;;;;;14.00;6.80;;;18.50;57.30;;;;;;5041446;28;20445;-60
2023/07/08 00:30:24;;;;;;;11.87;6.73;;;18.50;57.40;;;;;;5038500;28;20445;-59
2023/07/08 00:32:56;;;;;;;17.57;7.40;;;18.40;57.30;;;;;;5044702;28;20503;-60
2023/07/08 00:35:28;;;;;;;12.13;6.20;;;18.40;57.30;;;;;;5045222;28;20879;-60
2023/07/08 00:37:53;;;;;;;13.83;6.90;;;18.40;57.50;;;;;;5042035;28;20448;-60
2023/07/08 00:40:22;;;;;;;11.77;6.63;;;18.40;57.60;;;;;;5035277;28;20434;-59
2023/07/08 00:42:48;;;;;;;13.80;7.03;;;18.40;57.70;;;;;;5044171;28;20242;-59
2023/07/08 00:45:34;;;;;;;12.03;6.43;;;18.40;58.00;;;;;;5044934;28;20433;-60
2023/07/08 00:48:07;;;;;;;11.73;6.40;;;18.40;58.40;;;;;;5041259;28;20476;-60
2023/07/08 00:50:33;;;;;;;13.00;6.07;;;18.30;58.70;;;;;;5038540;28;21092;-60
2023/07/08 00:53:32;;;;;;;10.63;6.93;;;18.30;58.30;;;;;;5040685;28;20468;-60
2023/07/08 00:56:00;;;;;;;12.80;7.47;;;18.30;58.30;;;;;;5025624;28;20456;-59
2023/07/08 00:58:39;;;;;;;11.97;7.50;;;18.30;58.70;;;;;;5046233;28;20741;-58
2023/07/08 01:01:06;;;;;;;14.30;7.50;;;18.30;57.40;;;;;;5044641;28;20423;-60
2023/07/08 01:03:49;;;;;;;16.03;7.73;;;18.30;56.90;;;;;;5038309;28;20417;-61
2023/07/08 01:06:15;;;;;;;11.97;6.90;;;18.40;56.50;;;;;;5039946;28;20430;-60
2023/07/08 01:08:41;;;;;;;18.73;7.20;;;18.50;56.20;;;;;;5043899;28;20434;-60
2023/07/08 01:11:07;;;;;;;16.40;8.10;;;18.70;56.30;;;;;;5047012;28;20451;-60
2023/07/08 01:13:41;;;;;;;15.57;7.30;;;18.70;56.20;;;;;;5037257;28;20200;-61
2023/07/08 01:16:07;;;;;;;12.73;7.80;;;18.80;56.50;;;;;;5037160;28;20198;-59
2023/07/08 01:18:34;;;;;;;11.67;7.30;;;18.80;57.00;;;;;;5036752;28;20436;-59
2023/07/08 01:21:36;;;;;;;12.40;7.20;;;18.70;57.20;;;;;;5043653;28;20426;-59
2023/07/08 01:24:05;;;;;;;21.20;7.50;;;18.80;57.60;;;;;;5036982;28;20525;-59
2023/07/08 01:26:33;;;;;;;14.37;7.53;;;18.70;57.80;;;;;;5033625;28;20425;-59
2023/07/08 01:28:59;;;;;;;14.77;8.13;;;18.60;58.10;;;;;;5043140;28;20433;-60
2023/07/08 01:31:25;;;;;;;14.40;6.80;;;18.60;58.50;;;;;;5041731;28;20530;-56
2023/07/08 01:33:53;;;;;;;15.50;7.60;;;18.50;58.80;;;;;;5036981;28;20426;-58
2023/07/08 01:36:19;;;;;;;19.50;7.97;;;18.50;58.90;;;;;;5040977;28;20462;-60
2023/07/08 01:38:45;;;;;;;13.30;7.30;;;18.40;59.20;;;;;;5040175;28;20764;-60
2023/07/08 01:41:13;;;;;;;11.60;7.30;;;18.40;59.30;;;;;;5042170;28;20256;-60
2023/07/08 01:43:39;;;;;;;13.90;7.33;;;18.40;59.60;;;;;;5035956;28;20529;-58
2023/07/08 01:46:17;;;;;;;11.70;7.00;;;18.40;59.50;;;;;;5035558;28;20537;-60
2023/07/08 01:48:51;;;;;;;19.90;8.17;;;18.30;59.10;;;;;;5032810;28;20310;-59
2023/07/08 01:51:17;;;;;;;12.40;6.97;;;18.30;59.10;;;;;;5035402;28;20805;-59
2023/07/08 01:53:44;;;;;;;14.30;7.47;;;18.30;59.10;;;;;;5040933;28;20428;-60
2023/07/08 01:56:12;;;;;;;15.47;7.43;;;18.20;58.30;;;;;;5041269;28;20287;-60
2023/07/08 01:58:38;;;;;;;10.90;7.00;;;18.10;58.30;;;;;;5042325;28;20456;-59
2023/07/08 02:01:03;;;;;;;13.63;7.87;;;18.10;57.90;;;;;;5044815;28;20446;-61
2023/07/08 02:03:29;;;;;;;18.03;7.60;;;18.20;58.20;;;;;;5035202;28;20313;-58
2023/07/08 02:05:55;;;;;;;19.00;7.87;;;18.20;58.30;;;;;;5037320;28;20207;-60
2023/07/08 02:08:21;;;;;;;17.10;7.67;;;18.20;58.30;;;;;;5036551;28;20341;-58
2023/07/08 02:10:52;;;;;;;12.73;7.13;;;18.20;58.70;;;;;;5037388;28;20433;-59
2023/07/08 02:13:19;;;;;;;13.80;8.03;;;18.20;59.20;;;;;;5042431;28;20445;-60
2023/07/08 02:15:45;;;;;;;13.50;6.97;;;18.20;59.50;;;;;;5043597;28;20426;-57
2023/07/08 02:18:10;;;;;;;18.40;7.10;;;18.20;59.80;;;;;;5040504;28;20441;-60
2023/07/08 02:20:36;;;;;;;12.30;6.80;;;18.10;59.50;;;;;;5038704;28;20172;-60
2023/07/08 02:23:02;;;;;;;12.07;7.00;;;18.10;59.50;;;;;;5041459;28;20213;-60
2023/07/08 02:25:28;;;;;;;14.00;7.13;;;18.00;59.70;;;;;;5041907;28;20176;-59
2023/07/08 02:27:57;;;;;;;12.43;7.20;;;17.90;59.80;;;;;;5041178;28;20187;-60
2023/07/08 02:30:23;;;;;;;20.33;7.47;;;17.90;60.40;;;;;;5041009;28;20438;-60
2023/07/08 02:32:56;;;;;;;13.47;8.00;;;17.90;60.50;;;;;;5044049;28;20431;-59
2023/07/08 02:35:24;;;;;;;11.20;7.13;;;17.80;60.40;;;;;;5042558;28;20430;-61
2023/07/08 02:37:49;;;;;;;11.70;7.37;;;17.80;60.70;;;;;;5046300;28;20508;-60
2023/07/08 02:40:15;;;;;;;12.40;7.93;;;17.80;61.10;;;;;;5044053;28;20461;-58
2023/07/08 02:42:40;;;;;;;13.20;7.50;;;17.80;61.00;;;;;;5036374;28;20206;-60
2023/07/08 02:45:07;;;;;;;22.93;7.87;;;17.80;61.10;;;;;;5037364;28;20615;-58
2023/07/08 02:47:33;;;;;;;12.30;7.33;;;17.80;61.30;;;;;;5040145;28;20183;-60
2023/07/08 02:49:58;;;;;;;13.70;7.40;;;17.80;61.40;;;;;;5037696;28;20445;-58
2023/07/08 02:52:24;;;;;;;17.83;7.70;;;17.80;61.50;;;;;;5036496;28;20199;-59
2023/07/08 02:54:50;;;;;;;11.00;6.30;;;17.80;61.40;;;;;;5042416;28;20202;-58
2023/07/08 02:57:15;;;;;;;17.00;8.47;;;17.70;61.50;;;;;;5037396;28;20286;-60
2023/07/08 02:59:41;;;;;;;14.90;7.17;;;17.70;61.70;;;;;;5034773;28;20183;-60
2023/07/08 03:02:06;;;;;;;12.37;7.77;;;17.70;62.10;;;;;;5035065;28;20885;-59
2023/07/08 03:04:32;;;;;;;10.43;6.57;;;17.70;62.20;;;;;;5041691;28;20274;-59
2023/07/08 03:06:58;;;;;;;15.37;7.50;;;17.70;62.10;;;;;;5039205;28;20224;-60
2023/07/08 03:09:24;;;;;;;13.13;6.97;;;17.70;61.80;;;;;;5035394;28;20180;-58
2023/07/08 03:11:50;;;;;;;14.00;7.23;;;17.70;61.80;;;;;;5040959;28;21060;-60
2023/07/08 03:14:15;;;;;;;12.43;6.80;;;17.70;62.30;;;;;;5036715;28;20593;-62
2023/07/08 03:16:41;;;;;;;14.40;7.90;;;17.70;62.10;;;;;;5039419;28;20191;-61
2023/07/08 03:19:14;;;;;;;11.20;6.33;;;17.60;62.20;;;;;;5036682;28;20176;-60
2023/07/08 03:21:41;;;;;;;13.47;6.97;;;17.60;62.30;;;;;;5043229;28;20226;-61
2023/07/08 03:24:13;;;;;;;14.60;7.50;;;17.60;62.30;;;;;;5043662;28;20425;-60
2023/07/08 03:26:38;;;;;;;13.40;7.30;;;17.60;62.80;;;;;;5030321;28;20576;-61
2023/07/08 03:29:05;;;;;;;13.83;7.60;;;17.60;62.90;;;;;;5031555;28;20880;-61
2023/07/08 03:31:30;;;;;;;9.57;6.70;;;17.50;62.80;;;;;;5030290;28;20207;-61
2023/07/08 03:33:56;;;;;;;11.57;7.00;;;17.50;62.80;;;;;;5028094;28;20544;-61
2023/07/08 03:36:25;;;;;;;15.10;7.67;;;17.50;62.70;;;;;;5031613;28;20199;-61
2023/07/08 03:38:57;;;;;;;12.10;7.30;;;17.50;62.80;;;;;;5042356;28;20207;-60
2023/07/08 03:41:23;;;;;;;17.60;7.77;;;17.50;63.00;;;;;;5045293;28;20449;-60
2023/07/08 03:43:50;;;;;;;10.17;6.40;;;17.50;63.00;;;;;;5040557;28;20460;-60
2023/07/08 03:46:17;;;;;;;17.07;8.03;;;17.60;63.10;;;;;;5043034;28;20418;-60
2023/07/08 03:48:43;;;;;;;13.10;6.23;;;17.50;63.30;;;;;;5038995;28;20996;-60
2023/07/08 03:51:21;;;;;;;12.50;7.00;;;17.50;63.20;;;;;;5036468;28;20457;-59
2023/07/08 03:53:47;;;;;;;14.87;7.37;;;17.60;63.20;;;;;;5037859;28;20206;-58
2023/07/08 03:56:13;;;;;;;10.93;7.03;;;17.60;63.70;;;;;;5047732;28;20493;-59
2023/07/08 03:58:39;;;;;;;12.53;7.70;;;17.60;63.70;;;;;;5042890;28;20168;-60
2023/07/08 04:01:09;;;;;;;13.00;7.00;;;17.60;64.50;;;;;;5045283;28;20429;-60
2023/07/08 04:03:35;;;;;;;13.30;7.70;;;17.60;64.00;;;;;;5034740;28;20430;-59
2023/07/08 04:06:00;;;;;;;12.43;6.70;;;17.60;64.30;;;;;;5038871;28;20433;-60
2023/07/08 04:08:26;;;;;;;10.37;6.97;;;17.70;64.70;;;;;;5037330;28;20267;-58
2023/07/08 04:10:52;;;;;;;10.47;6.33;;;17.60;64.80;;;;;;5040696;28;20179;-57
2023/07/08 04:13:17;;;;;;;8.77;6.50;;;17.70;65.20;;;;;;5046027;28;20183;-59
2023/07/08 04:15:57;;;;;;;11.00;7.00;;;17.70;65.10;;;;;;5041238;28;20175;-60
2023/07/08 04:18:22;;;;;;;12.00;7.00;;;17.60;64.60;;;;;;5039921;28;20187;-59
2023/07/08 04:20:52;;;;;;;20.37;8.40;;;17.60;64.80;;;;;;5033793;28;20437;-60
2023/07/08 04:23:18;;;;;;;11.67;7.50;;;17.50;65.30;;;;;;5039078;28;20270;-60
2023/07/08 04:25:44;;;;;;;16.97;7.60;;;17.60;65.20;;;;;;5035789;28;20802;-60
2023/07/08 04:28:09;;;;;;;15.67;7.77;;;17.60;65.20;;;;;;5036710;28;20430;-60
2023/07/08 04:30:40;;;;;;;13.93;7.07;;;17.60;65.80;;;;;;5043026;28;20717;-59
2023/07/08 04:33:11;;;;;;;10.80;7.00;;;17.60;66.80;;;;;;5038891;28;20620;-59
2023/07/08 04:35:40;;;;;;;14.30;7.80;;;17.60;66.80;;;;;;5044943;28;20422;-60
2023/07/08 04:38:09;;;;;;;11.30;6.80;;;17.60;66.10;;;;;;5039213;28;20450;-57
2023/07/08 04:40:39;;;;;;;12.17;7.90;;;17.60;66.00;;;;;;5036886;28;20433;-61
2023/07/08 04:43:12;;;;;;;13.87;7.00;;;17.60;66.30;;;;;;5034574;28;20882;-59
2023/07/08 04:45:39;;;;;;;12.73;6.57;;;17.60;66.10;;;;;;5040674;28;20442;-59
2023/07/08 04:48:12;;;;;;;10.83;5.40;;;17.60;66.70;;;;;;5042121;28;20513;-58
2023/07/08 04:50:42;;;;;;;8.63;4.30;;;17.60;67.60;;;;;;5041780;28;20920;-60
2023/07/08 04:53:08;;;;;;;8.60;3.00;;;17.70;65.80;;;;;;5038745;28;20448;-60
2023/07/08 04:55:40;;;;;;;6.80;2.80;;;18.00;64.00;;;;;;5042782;28;20517;-60
2023/07/08 04:58:06;;;;;;;4.20;2.40;;;18.20;62.90;;;;;;5039357;28;20487;-60
2023/07/08 05:00:31;;;;;;;9.20;4.43;;;18.50;62.20;;;;;;5040332;28;20903;-60
2023/07/08 05:02:57;;;;;;;11.57;6.70;;;18.60;61.20;;;;;;5041603;28;20222;-59
2023/07/08 05:05:23;;;;;;;16.20;6.90;;;18.70;63.20;;;;;;5042356;28;20660;-58
2023/07/08 05:07:49;;;;;;;10.60;6.43;;;18.70;63.50;;;;;;5037672;28;20200;-60
2023/07/08 05:10:15;;;;;;;12.23;6.20;;;18.70;64.20;;;;;;5045551;28;20178;-60
2023/07/08 05:12:41;;;;;;;8.50;5.00;;;18.70;64.70;;;;;;5045171;28;20544;-61
2023/07/08 05:15:07;;;;;;;14.27;6.30;;;18.60;65.30;;;;;;5042647;28;20425;-61
2023/07/08 05:17:33;;;;;;;9.77;6.03;;;18.60;65.40;;;;;;5049026;28;20468;-60
2023/07/08 05:20:00;;;;;;;8.10;4.97;;;18.60;67.40;;;;;;5036823;28;20814;-58
2023/07/08 05:22:27;;;;;;;9.80;4.93;;;18.60;70.80;;;;;;5045809;28;20456;-60
2023/07/08 05:24:55;;;;;;;12.33;5.60;;;18.60;74.30;;;;;;5042295;28;20433;-58
2023/07/08 05:27:22;;;;;;;13.00;4.60;;;18.60;74.60;;;;;;5043477;28;20441;-59
2023/07/08 05:29:48;;;;;;;7.40;4.37;;;18.60;74.90;;;;;;5042160;28;20452;-59
2023/07/08 05:32:13;;;;;;;8.63;3.43;;;18.60;74.50;;;;;;5038234;28;20828;-61
2023/07/08 05:34:39;;;;;;;4.93;3.50;;;18.60;72.30;;;;;;5040094;28;20187;-60
2023/07/08 05:37:04;;;;;;;6.70;3.20;;;18.60;70.10;;;;;;5041728;28;20199;-60
2023/07/08 05:39:31;;;;;;;5.83;2.33;;;18.70;69.90;;;;;;5038848;28;20214;-58
2023/07/08 05:41:57;;;;;;;9.00;2.37;;;18.70;66.80;;;;;;5033066;28;20207;-60
2023/07/08 05:44:22;;;;;;;3.80;2.23;;;18.80;65.70;;;;;;5041575;28;20808;-59
2023/07/08 05:46:49;;;;;;;3.73;2.10;;;18.80;65.40;;;;;;5041380;28;20183;-60
2023/07/08 05:49:15;;;;;;;2.60;1.97;;;18.90;64.90;;;;;;5042076;28;20845;-58
2023/07/08 05:51:40;;;;;;;4.87;2.87;;;19.00;64.80;;;;;;5036577;28;20467;-60
2023/07/08 05:54:06;;;;;;;5.47;2.30;;;19.00;65.50;;;;;;5042017;28;20275;-59
2023/07/08 05:56:32;;;;;;;2.90;2.37;;;19.00;66.30;;;;;;5039687;28;20824;-60
2023/07/08 05:58:58;;;;;;;6.10;2.40;;;19.00;67.70;;;;;;5040113;28;20178;-60
2023/07/08 06:01:23;;;;;;;3.20;1.97;;;19.00;69.30;;;;;;5041766;28;20603;-58
2023/07/08 06:03:49;;;;;;;4.90;2.13;;;19.00;72.20;;;;;;5044465;28;20183;-58
2023/07/08 06:06:15;;;;;;;5.10;2.60;;;18.90;76.20;;;;;;5043052;28;20191;-61
2023/07/08 06:08:41;;;;;;;4.27;2.60;;;18.90;77.60;;;;;;5040884;28;20442;-61
2023/07/08 06:11:07;;;;;;;4.70;2.20;;;18.80;79.00;;;;;;5042009;28;20183;-61
2023/07/08 06:13:32;;;;;;;5.73;2.80;;;18.70;80.70;;;;;;5048399;28;20437;-62
2023/07/08 06:15:58;;;;;;;6.20;2.00;;;18.60;83.10;;;;;;5046249;28;20350;-60
2023/07/08 06:18:23;;;;;;;3.17;1.90;;;18.60;84.00;;;;;;5048127;28;20202;-61
2023/07/08 06:20:54;;;;;;;3.90;2.00;;;18.50;84.70;;;;;;5041692;28;20195;-62
2023/07/08 06:23:20;;;;;;;4.00;2.60;;;18.50;86.60;;;;;;5037717;28;20475;-60
2023/07/08 06:25:46;;;;;;;4.27;2.80;;;18.50;88.20;;;;;;5038035;28;20468;-61
2023/07/08 06:28:11;;;;;;;3.27;2.17;;;18.40;90.00;;;;;;5046632;28;20438;-59
2023/07/08 06:30:37;;;;;;;4.17;2.27;;;18.40;88.90;;;;;;5040576;28;20233;-58
2023/07/08 06:33:03;;;;;;;7.20;2.70;;;18.40;90.20;;;;;;5041588;28;20202;-60
2023/07/08 06:35:29;;;;;;;3.83;2.40;;;18.40;90.20;;;;;;5037924;28;20211;-60
2023/07/08 06:37:55;;;;;;;2.80;2.30;;;18.40;90.50;;;;;;5036439;28;20479;-58
2023/07/08 06:40:20;;;;;;;10.17;2.37;;;18.40;91.00;;;;;;5037639;28;20194;-60
2023/07/08 06:42:46;;;;;;;3.83;2.13;;;18.40;91.70;;;;;;5043315;28;20188;-60
2023/07/08 06:45:12;;;;;;;2.47;2.20;;;18.50;92.90;;;;;;5042339;28;20242;-60
2023/07/08 06:47:37;;;;;;;3.60;2.53;;;18.50;95.50;;;;;;5040082;28;20551;-60
2023/07/08 06:50:03;;;;;;;4.47;2.83;;;18.60;96.00;;;;;;5035565;28;20573;-61
2023/07/08 06:52:33;;;;;;;5.23;2.87;;;18.70;99.10;;;;;;5042307;28;20203;-62
2023/07/08 06:55:01;;;;;;;7.50;2.97;;;18.70;98.80;;;;;;5037038;28;20442;-62
2023/07/08 06:57:26;;;;;;;4.80;2.67;;;18.80;99.90;;;;;;5033114;28;20552;-59
2023/07/08 06:59:52;;;;;;;5.20;2.60;;;18.80;99.90;;;;;;5047014;28;20530;-61
2023/07/08 07:02:18;;;;;;;5.20;2.60;;;18.90;98.90;;;;;;5044688;28;20244;-63
2023/07/08 07:04:43;;;;;;;4.03;2.40;;;19.00;96.90;;;;;;5045498;28;20175;-61
2023/07/08 07:07:09;;;;;;;7.30;2.57;;;19.00;95.50;;;;;;5042115;28;20617;-60
2023/07/08 07:09:35;;;;;;;5.33;2.70;;;19.10;95.00;;;;;;5043507;28;20182;-62
2023/07/08 07:12:01;;;;;;;6.47;2.50;;;19.20;94.60;;;;;;5043154;28;20229;-61
2023/07/08 07:14:26;;;;;;;3.60;2.47;;;19.20;97.50;;;;;;5039929;28;20239;-60
2023/07/08 07:16:52;;;;;;;3.10;2.40;;;19.30;99.30;;;;;;5036258;28;20322;-60
2023/07/08 07:19:18;;;;;;;5.07;2.40;;;19.40;98.60;;;;;;5043251;28;20754;-60
2023/07/08 07:21:43;;;;;;;8.27;2.17;;;19.40;97.40;;;;;;5042001;28;20187;-59
2023/07/08 07:24:09;;;;;;;3.03;2.33;;;19.50;96.30;;;;;;5043841;28;20183;-61
2023/07/08 07:26:36;;;;;;;7.00;2.20;;;19.50;95.00;;;;;;5041802;28;20179;-61
2023/07/08 07:29:02;;;;;;;4.70;2.97;;;19.60;94.40;;;;;;5039802;28;20259;-60
2023/07/08 07:31:27;;;;;;;4.07;1.90;;;19.70;93.90;;;;;;5041702;28;20561;-62
2023/07/08 07:33:53;;;;;;;5.50;2.10;;;19.80;91.50;;;;;;5038391;28;20180;-61
2023/07/08 07:36:19;;;;;;;2.23;2.00;;;20.00;89.30;;;;;;5040813;28;20200;-60
2023/07/08 07:38:45;;;;;;;4.10;2.07;;;20.10;88.00;;;;;;5039826;28;20187;-60
2023/07/08 07:41:12;;;;;;;4.30;2.40;;;20.20;87.70;;;;;;5038902;28;20698;-59
2023/07/08 07:43:38;;;;;;;5.27;2.20;;;20.40;80.30;;;;;;5044939;28;20567;-59
2023/07/08 07:46:05;;;;;;;2.07;1.80;;;20.70;78.20;;;;;;5038327;28;21005;-60
2023/07/08 07:48:31;;;;;;;6.50;2.63;;;20.90;79.50;;;;;;5035959;28;20187;-60
2023/07/08 07:50:57;;;;;;;2.83;2.30;;;21.20;78.70;;;;;;5037525;28;20474;-60
2023/07/08 07:53:23;;;;;;;6.27;2.03;;;21.40;76.70;;;;;;5035048;28;20562;-61
2023/07/08 07:55:56;;;;;;;3.30;2.00;;;21.50;74.20;;;;;;5034243;28;20179;-59
2023/07/08 07:58:22;;;;;;;4.73;2.50;;;21.70;72.30;;;;;;5034412;28;20203;-58
2023/07/08 08:00:47;;;;;;;3.80;2.30;;;21.90;71.10;;;;;;5020930;28;21006;-58
2023/07/08 08:03:13;;;;;;;4.10;2.30;;;22.00;69.00;;;;;;5023048;28;20199;-61
2023/07/08 08:05:38;;;;;;;3.33;2.30;;;22.10;65.90;;;;;;5031585;28;20168;-59
2023/07/08 08:08:04;;;;;;;3.90;1.73;;;22.20;62.50;;;;;;5032465;28;20194;-59
2023/07/08 08:10:32;;;;;;;7.50;2.10;;;22.20;62.00;;;;;;5023638;28;20266;-58
2023/07/08 08:12:58;;;;;;;4.40;2.13;;;22.30;61.60;;;;;;5034423;28;20226;-57
2023/07/08 08:15:23;;;;;;;3.70;2.10;;;22.40;60.00;;;;;;5036370;28;20465;-57
2023/07/08 08:17:51;;;;;;;11.03;2.27;;;22.40;58.40;;;;;;5035725;28;20210;-59
2023/07/08 08:20:18;;;;;;;3.97;1.90;;;22.30;58.60;;;;;;5036692;28;20278;-60
2023/07/08 08:22:45;;;;;;;4.53;2.33;;;22.20;58.00;;;;;;5030343;28;20480;-56
2023/07/08 08:25:10;;;;;;;4.93;2.50;;;22.10;57.70;;;;;;5040102;28;20426;-59
2023/07/08 08:27:36;;;;;;;4.63;2.10;;;22.00;58.00;;;;;;5039788;28;20433;-59
2023/07/08 08:30:02;;;;;;;4.57;2.50;;;21.90;57.80;;;;;;5036427;28;20753;-57
2023/07/08 08:32:27;;;;;;;5.37;2.37;;;21.80;58.00;;;;;;5033944;28;20329;-57
2023/07/08 08:34:53;;;;;;;4.47;2.27;;;21.80;58.00;;;;;;5045423;28;20422;-58
2023/07/08 08:37:19;;;;;;;1.93;1.77;;;21.70;57.30;;;;;;5021073;28;20672;-61
2023/07/08 08:39:45;;;;;;;2.83;2.33;;;21.70;57.70;;;;;;5030332;28;20187;-57
2023/07/08 08:42:30;;;;;;;3.67;1.90;;;21.60;57.50;;;;;;5027147;28;20775;-61
2023/07/08 08:44:58;;;;;;;3.40;1.97;;;21.70;57.50;;;;;;5042004;28;20454;-59
2023/07/08 08:47:39;;;;;;;3.43;2.20;;;21.70;57.00;;;;;;5043055;28;20426;-58
2023/07/08 08:50:30;;;;;;;2.03;1.80;;;21.70;56.90;;;;;;5028713;28;20430;-58
2023/07/08 08:52:56;;;;;;;4.53;2.00;;;21.70;56.90;;;;;;5025858;28;20446;-58
2023/07/08 08:55:26;;;;;;;2.40;1.93;;;21.80;57.00;;;;;;5030792;28;20989;-61
2023/07/08 08:58:19;;;;;;;4.60;2.07;;;21.80;56.70;;;;;;5034998;28;20508;-62
2023/07/08 09:00:56;;;;;;;4.00;1.93;;;21.80;56.20;;;;;;5035998;28;20513;-59
2023/07/08 09:03:43;;;;;;;4.33;1.97;;;21.90;56.10;;;;;;5041941;28;20430;-59
2023/07/08 09:06:21;;;;;;;4.30;2.27;;;22.00;55.80;;;;;;5038673;28;20487;-58
2023/07/08 09:08:47;;;;;;;2.23;1.70;;;22.00;55.60;;;;;;5039271;28;20429;-57
2023/07/08 09:11:19;;;;;;;6.27;2.27;;;22.00;55.60;;;;;;5034704;28;20485;-59
2023/07/08 09:13:46;;;;;;;4.50;1.77;;;22.10;55.50;;;;;;5031261;28;20796;-59
2023/07/08 09:16:20;;;;;;;6.43;2.10;;;22.10;55.40;;;;;;5031150;28;20608;-59
2023/07/08 09:18:54;;;;;;;6.23;2.20;;;22.00;55.60;;;;;;5033997;28;20426;-59
2023/07/08 09:21:26;;;;;;;3.70;2.00;;;22.00;55.60;;;;;;5022834;28;20552;-60
2023/07/08 09:24:00;;;;;;;4.23;2.10;;;22.00;56.00;;;;;;5029161;28;20450;-60
2023/07/08 09:26:29;;;;;;;2.73;1.60;;;22.00;56.40;;;;;;5031671;28;20962;-55
2023/07/08 09:28:55;;;;;;;4.40;2.93;;;22.00;56.40;;;;;;5027044;28;20434;-55
2023/07/08 09:31:30;;;;;;;2.63;2.10;;;22.00;56.50;;;;;;5025131;28;20486;-56
2023/07/08 09:34:15;;;;;;;3.17;2.27;;;22.00;56.80;;;;;;5035589;28;20634;-57
2023/07/08 09:36:43;;;;;;;2.30;1.87;;;22.10;56.90;;;;;;5030520;28;20472;-57
2023/07/08 09:39:11;;;;;;;7.30;2.20;;;22.10;57.00;;;;;;5020005;28;20942;-56
2023/07/08 09:41:39;;;;;;;2.70;1.73;;;22.10;57.00;;;;;;5032326;28;20445;-59
2023/07/08 09:44:15;;;;;;;3.00;2.30;;;22.10;57.20;;;;;;5042828;28;20427;-61
2023/07/08 09:46:41;;;;;;;3.73;2.10;;;22.20;57.30;;;;;;5030920;28;20445;-58
2023/07/08 09:49:27;;;;;;;2.67;2.07;;;22.20;57.30;;;;;;5023809;28;20468;-58
2023/07/08 09:51:53;;;;;;;4.13;2.20;;;22.30;57.40;;;;;;5037117;28;21590;-60
2023/07/08 09:54:21;;;;;;;4.90;3.07;;;22.40;57.50;;;;;;5027875;28;20833;-59
2023/07/08 09:57:13;;;;;;;3.30;2.30;;;22.50;58.30;;;;;;5031655;28;20241;-59
2023/07/08 09:59:46;;;;;;;1.87;1.70;;;22.60;57.80;;;;;;5033230;28;20445;-60
2023/07/08 10:02:26;;;;;;;4.93;1.90;;;22.60;57.00;;;;;;5025190;28;21323;-58
2023/07/08 10:04:55;;;;;;;3.83;2.03;;;22.60;57.50;;;;;;5022266;28;20433;-61
2023/07/08 10:07:21;;;;;;;6.00;1.97;;;22.50;57.40;;;;;;5032320;28;20895;-61
2023/07/08 10:09:50;;;;;;;3.70;2.50;;;22.60;58.10;;;;;;5039667;28;20430;-61
2023/07/08 10:12:16;;;;;;;4.37;2.30;;;22.70;58.20;;;;;;5044481;28;20200;-61
2023/07/08 10:14:53;;;;;;;4.60;2.53;;;22.80;57.50;;;;;;5041534;28;20517;-58
2023/07/08 10:17:21;;;;;;;3.77;2.07;;;22.80;57.70;;;;;;5041811;28;20464;-62
2023/07/08 10:19:47;;;;;;;4.20;2.40;;;22.90;58.10;;;;;;5041211;28;20525;-60
2023/07/08 10:22:34;;;;;;;2.17;1.97;;;23.00;57.70;;;;;;5043832;28;20856;-60
2023/07/08 10:25:35;;;;;;;5.93;2.10;;;23.10;57.50;;;;;;5039326;28;20427;-60
2023/07/08 10:28:12;;;;;;;6.53;2.60;;;23.20;56.90;;;;;;5037126;28;20452;-61
2023/07/08 10:30:50;;;;;;;4.50;2.10;;;23.40;57.10;;;;;;5039284;28;20514;-60
2023/07/08 10:33:48;;;;;;;3.50;2.80;;;23.40;56.60;;;;;;5045537;28;20469;-61
2023/07/08 10:36:34;;;;;;;5.43;2.70;;;23.40;56.60;;;;;;5034000;28;21033;-59
2023/07/08 10:39:21;;;;;;;6.20;2.23;;;23.40;56.80;;;;;;5039200;28;20987;-60
2023/07/08 10:42:03;;;;;;;5.03;2.70;;;23.50;56.80;;;;;;5038468;28;20537;-60
2023/07/08 10:45:05;;;;;;;3.20;2.63;;;23.50;56.30;;;;;;5048300;28;20770;-59
2023/07/08 10:47:33;;;;;;;4.30;2.60;;;23.50;55.10;;;;;;5033108;28;21170;-61
2023/07/08 10:50:35;;;;;;;7.63;2.90;;;23.40;55.30;;;;;;5041589;28;20488;-60
2023/07/08 10:53:28;;;;;;;4.77;2.40;;;23.50;55.30;;;;;;5036774;28;20444;-61
2023/07/08 10:55:57;;;;;;;6.10;2.80;;;23.60;55.10;;;;;;5035168;28;20413;-61
2023/07/08 10:58:40;;;;;;;4.97;2.77;;;23.60;53.80;;;;;;5043465;28;20954;-61
2023/07/08 11:01:12;;;;;;;6.57;3.00;;;23.60;53.30;;;;;;5011668;28;20419;-59
2023/07/08 11:03:50;;;;;;;4.03;2.57;;;23.70;53.30;;;;;;5027985;28;20426;-60
2023/07/08 11:06:23;;;;;;;4.43;2.97;;;23.80;52.60;;;;;;5034448;28;20444;-58
2023/07/08 11:09:01;;;;;;;4.00;3.03;;;23.90;52.80;;;;;;5042442;28;21004;-56
2023/07/08 11:11:42;;;;;;;4.87;2.47;;;24.10;52.80;;;;;;5028508;28;20468;-56
2023/07/08 11:14:17;;;;;;;4.23;2.70;;;24.30;52.10;;;;;;5024873;28;20516;-58
2023/07/08 11:16:57;;;;;;;9.17;2.90;;;24.50;52.50;;;;;;5034621;28;20461;-54
2023/07/08 11:19:36;;;;;;;4.17;2.60;;;24.70;51.60;;;;;;5030804;28;20437;-58
2023/07/08 11:22:09;;;;;;;5.20;2.83;;;24.80;51.90;;;;;;5032804;28;20537;-60
2023/07/08 11:24:43;;;;;;;6.50;2.93;;;25.00;52.40;;;;;;5024298;28;20432;-58
2023/07/08 11:27:19;;;;;;;5.83;3.03;;;25.30;51.20;;;;;;5032549;28;20436;-56
2023/07/08 11:30:10;;;;;;;5.10;2.97;;;25.40;50.20;;;;;;5040123;28;20975;-55
2023/07/08 11:32:37;;;;;;;6.23;3.07;;;25.60;50.40;;;;;;5030756;28;20453;-55
2023/07/08 11:35:05;;;;;;;5.80;2.47;;;25.80;50.50;;;;;;5026717;28;20961;-57
2023/07/08 11:37:32;;;;;;;5.73;2.70;;;25.90;49.70;;;;;;5041031;28;20957;-57
2023/07/08 11:40:05;;;;;;;2.60;2.40;;;26.00;49.80;;;;;;5031101;28;20850;-58
2023/07/08 11:42:43;;;;;;;3.93;2.33;;;26.10;50.20;;;;;;5030076;28;21014;-57
2023/07/08 11:45:25;;;;;;;4.70;2.70;;;26.20;49.80;;;;;;5028494;28;20543;-55
2023/07/08 11:47:51;;;;;;;6.90;3.30;;;26.30;48.70;;;;;;5038627;28;20529;-53
2023/07/08 11:50:35;;;;;;;7.27;2.83;;;26.50;49.50;;;;;;5027532;28;20525;-56
2023/07/08 11:53:03;;;;;;;4.73;2.83;;;26.80;45.80;;;;;;5026410;28;20489;-57
2023/07/08 11:55:37;;;;;;;5.20;2.80;;;26.90;46.50;;;;;;5031212;28;20437;-57
2023/07/08 11:58:25;;;;;;;6.53;3.43;;;27.10;46.20;;;;;;5029496;28;20857;-59
2023/07/08 12:01:00;;;;;;;3.00;2.60;;;27.30;45.70;;;;;;5032349;28;20436;-56
2023/07/08 12:03:37;;;;;;;5.63;2.83;;;27.30;44.10;;;;;;5024985;28;20254;-57
2023/07/08 12:06:26;;;;;;;6.30;2.40;;;27.30;44.80;;;;;;5032830;28;20270;-55
2023/07/08 12:08:54;;;;;;;6.17;3.07;;;27.10;44.80;;;;;;5023437;28;20748;-57
2023/07/08 12:11:27;;;;;;;3.73;2.57;;;27.10;45.50;;;;;;5024885;28;20210;-60
2023/07/08 12:13:58;;;;;;;3.70;2.40;;;27.00;45.10;;;;;;5027528;28;20189;-58
2023/07/08 12:16:25;;;;;;;4.70;2.60;;;27.00;45.20;;;;;;5034767;28;20671;-59
2023/07/08 12:18:52;;;;;;;6.10;2.80;;;27.00;46.00;;;;;;5026955;28;20184;-62
2023/07/08 12:21:18;;;;;;;4.30;2.30;;;27.10;46.10;;;;;;5030376;28;20767;-58
2023/07/08 12:23:46;;;;;;;3.70;2.50;;;27.10;46.80;;;;;;5032368;28;20667;-59
2023/07/08 12:26:12;;;;;;;6.00;3.17;;;27.20;46.30;;;;;;5029713;28;21131;-60
2023/07/08 12:28:42;;;;;;;5.47;2.93;;;27.30;46.20;;;;;;5036252;28;20195;-61
2023/07/08 12:31:26;;;;;;;4.57;2.70;;;27.30;46.40;;;;;;5035510;28;20215;-62
2023/07/08 12:33:52;;;;;;;4.10;2.80;;;27.30;46.80;;;;;;5026501;28;20225;-62
2023/07/08 12:36:27;;;;;;;4.57;2.30;;;27.30;47.00;;;;;;5039035;28;21162;-63
2023/07/08 12:38:55;;;;;;;4.20;2.97;;;27.30;48.70;;;;;;5028602;28;20838;-64
2023/07/08 12:41:26;;;;;;;8.43;2.70;;;27.50;48.50;;;;;;5029393;28;20205;-57
2023/07/08 12:43:52;;;;;;;4.80;2.87;;;27.80;47.10;;;;;;5035321;28;20179;-60
2023/07/08 12:46:22;;;;;;;6.87;3.03;;;28.00;46.90;;;;;;5033420;28;20183;-60
2023/07/08 12:48:48;;;;;;;4.37;3.10;;;28.30;46.80;;;;;;5030359;28;20289;-59
2023/07/08 12:51:17;;;;;;;4.80;2.67;;;28.60;46.00;;;;;;5035374;28;20331;-59
2023/07/08 12:53:43;;;;;;;10.23;2.77;;;28.70;45.00;;;;;;5035989;28;20701;-58
2023/07/08 12:56:10;;;;;;;3.50;2.33;;;28.90;44.70;;;;;;5022910;28;20741;-61